Time;durP1;ratioP1;P1;durP2;ratioP2;P2;SDS_P1;SDS_P2;PMS_P1;PMS_P2;Temp;Humidity;BMP_temperature;BMP_pressure;BME280_temperature;BME280_humidity;BME280_pressure;Samples;Min_cycle;Max_cycle;Signal;HPM_P1;HPM_P2
2022/09/15 00:00:07;;;;;;;12.85;9.75;;;;;;;13.24;77.32;99473.83;1771000;78;21034;-60
2022/09/15 00:02:34;;;;;;;11.00;9.43;;;;;;;13.25;77.17;99471.53;1774100;78;21505;-60
2022/09/15 00:05:00;;;;;;;10.95;9.28;;;;;;;13.23;77.20;99474.80;1775545;80;22110;-60
2022/09/15 00:07:27;;;;;;;10.65;9.53;;;;;;;13.22;77.36;99475.30;1747635;81;21086;-59
2022/09/15 00:09:53;;;;;;;10.98;9.53;;;;;;;13.19;77.62;99473.80;1719856;81;21135;-60
2022/09/15 00:12:20;;;;;;;12.50;10.30;;;;;;;13.17;77.82;99470.50;1712935;83;21087;-60
2022/09/15 00:14:46;;;;;;;12.03;9.48;;;;;;;13.15;77.67;99469.84;1715186;81;21124;-61
2022/09/15 00:17:14;;;;;;;10.63;8.95;;;;;;;13.20;77.50;99472.82;1756412;79;21023;-60
2022/09/15 00:19:40;;;;;;;12.73;9.25;;;;;;;13.22;77.35;99477.13;1759111;79;21066;-60
2022/09/15 00:22:07;;;;;;;11.78;9.53;;;;;;;13.17;77.43;99471.82;1759096;79;21165;-60
2022/09/15 00:24:35;;;;;;;11.15;9.28;;;;;;;13.14;77.48;99468.17;1764668;80;21067;-60
2022/09/15 00:27:02;;;;;;;12.88;9.70;;;;;;;13.12;77.38;99468.84;1741332;80;21556;-60
2022/09/15 00:29:29;;;;;;;11.33;9.98;;;;;;;13.13;77.11;99467.02;1769045;79;21062;-59
2022/09/15 00:31:56;;;;;;;12.05;9.40;;;;;;;13.10;77.14;99459.44;1767016;80;21325;-59
2022/09/15 00:34:23;;;;;;;10.65;9.05;;;;;;;13.05;77.36;99456.46;1759103;79;21290;-60
2022/09/15 00:36:50;;;;;;;11.00;9.25;;;;;;;13.01;77.29;99455.93;1765357;80;21022;-59
2022/09/15 00:39:17;;;;;;;9.43;8.25;;;;;;;12.96;77.25;99453.80;1761782;79;21043;-60
2022/09/15 00:41:43;;;;;;;12.85;8.90;;;;;;;12.99;77.23;99460.55;1764556;79;21600;-60
2022/09/15 00:44:19;;;;;;;9.63;7.47;;;;;;;12.99;77.27;99467.16;1745226;80;21702;-60
2022/09/15 00:46:48;;;;;;;;;;;;;;;12.97;77.65;99465.17;1768420;79;21132;-59
2022/09/15 00:49:23;;;;;;;9.78;8.23;;;;;;;12.94;78.04;99464.17;1764567;79;20350;-60
2022/09/15 00:52:06;;;;;;;9.30;7.25;;;;;;;12.92;78.40;99469.61;1753267;80;21020;-60
2022/09/15 00:55:03;;;;;;;9.65;7.45;;;;;;;12.91;78.35;99473.25;1754673;80;21512;-61
2022/09/15 00:57:42;;;;;;;;;;;;;;;12.95;78.22;99465.83;1753777;80;21047;-60
2022/09/15 01:00:12;;;;;;;8.88;7.22;;;;;;;12.95;78.14;99470.61;1767044;79;21786;-58
2022/09/15 01:02:41;;;;;;;9.15;6.75;;;;;;;12.93;78.32;99471.78;1770582;80;21690;-60
2022/09/15 01:05:11;;;;;;;6.92;6.00;;;;;;;12.90;78.53;99467.63;1761272;79;21477;-58
2022/09/15 01:07:43;;;;;;;8.43;6.70;;;;;;;12.91;78.40;99464.48;1756969;80;21043;-58
2022/09/15 01:10:26;;;;;;;7.72;6.83;;;;;;;12.95;78.21;99461.38;1749007;80;21020;-58
2022/09/15 01:12:58;;;;;;;8.60;7.22;;;;;;;12.97;78.11;99460.71;1768907;79;21168;-59
2022/09/15 01:15:48;;;;;;;8.70;7.65;;;;;;;12.97;78.25;99465.17;1765563;80;21113;-60
2022/09/15 01:18:32;;;;;;;10.20;8.50;;;;;;;12.96;78.57;99467.00;1765644;79;21057;-60
2022/09/15 01:21:16;;;;;;;8.05;6.53;;;;;;;12.95;78.85;99461.38;1770053;80;21508;-59
2022/09/15 01:24:39;;;;;;;10.63;7.40;;;;;;;12.98;78.96;99452.31;1763424;79;21133;-59
2022/09/15 01:27:54;;;;;;;9.78;7.12;;;;;;;13.02;78.86;99445.70;1738004;80;21820;-60
2022/09/15 01:30:23;;;;;;;9.10;7.03;;;;;;;13.08;78.97;99443.75;1733123;81;21129;-59
2022/09/15 01:33:15;;;;;;;8.65;6.85;;;;;;;13.14;79.21;99440.44;1750386;80;21049;-60
2022/09/15 01:35:53;;;;;;;9.43;7.45;;;;;;;13.13;79.29;99438.81;1769636;80;21125;-60
2022/09/15 01:38:59;;;;;;;8.08;6.53;;;;;;;13.11;79.49;99435.52;1763717;79;21045;-59
2022/09/15 01:41:46;;;;;;;8.00;6.87;;;;;;;13.12;79.43;99429.72;1702812;82;21163;-60
2022/09/15 01:44:17;;;;;;;8.70;6.95;;;;;;;13.16;79.06;99429.72;1758983;80;21572;-60
2022/09/15 01:46:50;;;;;;;8.53;7.28;;;;;;;13.13;79.00;99428.24;1719167;82;21086;-60
2022/09/15 01:49:22;;;;;;;9.00;6.92;;;;;;;13.10;79.19;99425.11;1745386;80;21542;-60
2022/09/15 01:51:51;;;;;;;7.80;6.28;;;;;;;13.05;79.33;99423.45;1763244;80;21019;-60
2022/09/15 01:54:29;;;;;;;7.28;6.03;;;;;;;13.07;79.43;99420.95;1754923;79;21874;-60
2022/09/15 01:56:56;;;;;;;7.67;6.05;;;;;;;13.14;79.22;99418.50;1778697;80;21556;-59
2022/09/15 01:59:22;;;;;;;8.60;6.37;;;;;;;13.21;79.34;99420.80;1763366;80;21106;-60
2022/09/15 02:02:00;;;;;;;7.80;6.40;;;;;;;13.26;79.45;99411.08;1778688;79;21052;-60
2022/09/15 02:04:38;;;;;;;9.83;8.08;;;;;;;13.29;79.63;99405.47;1767410;80;21078;-59
2022/09/15 02:07:19;;;;;;;9.48;7.87;;;;;;;13.33;79.92;99408.13;1775137;80;21167;-59
2022/09/15 02:10:02;;;;;;;9.48;7.37;;;;;;;13.37;79.90;99397.58;1772245;79;21078;-59
2022/09/15 02:12:46;;;;;;;12.03;7.95;;;;;;;13.44;79.93;99397.25;1778680;80;21042;-60
2022/09/15 02:15:17;;;;;;;10.80;8.13;;;;;;;13.49;80.10;99398.89;1758028;80;21043;-59
2022/09/15 02:17:46;;;;;;;12.13;9.80;;;;;;;13.55;80.41;99396.92;1737516;80;21556;-59
2022/09/15 02:20:43;;;;;;;10.48;9.38;;;;;;;13.61;80.69;99398.56;1745591;81;21110;-59
2022/09/15 02:23:29;;;;;;;11.03;8.48;;;;;;;13.64;80.94;99403.52;1747224;80;21535;-59
2022/09/15 02:26:03;;;;;;;11.15;9.45;;;;;;;13.71;81.11;99403.99;1733705;81;21078;-59
2022/09/15 02:28:34;;;;;;;10.40;9.08;;;;;;;13.80;80.96;99406.16;1744083;81;21187;-60
2022/09/15 02:31:02;;;;;;;13.85;9.83;;;;;;;13.87;80.98;99403.16;1739972;80;21087;-60
2022/09/15 02:33:33;;;;;;;11.93;10.32;;;;;;;13.94;80.90;99404.63;1701313;82;21874;-60
2022/09/15 02:36:00;;;;;;;12.18;10.68;;;;;;;13.98;80.81;99401.97;1738539;82;21071;-60
2022/09/15 02:38:28;;;;;;;15.03;11.50;;;;;;;13.97;80.90;99403.45;1708758;82;21662;-60
2022/09/15 02:40:55;;;;;;;15.05;11.30;;;;;;;13.97;81.24;99401.66;1745120;80;21081;-60
2022/09/15 02:43:22;;;;;;;12.13;10.38;;;;;;;14.00;81.21;99399.97;1745677;81;21114;-60
2022/09/15 02:45:49;;;;;;;11.57;9.70;;;;;;;14.06;81.01;99389.23;1747412;82;21139;-60
2022/09/15 02:48:16;;;;;;;15.05;11.08;;;;;;;14.10;80.91;99394.50;1744704;80;21074;-60
2022/09/15 02:50:43;;;;;;;12.37;10.43;;;;;;;14.16;80.94;99396.98;1746947;82;21011;-60
2022/09/15 02:53:09;;;;;;;12.07;10.40;;;;;;;14.18;80.92;99397.63;1746763;82;21070;-59
2022/09/15 02:55:36;;;;;;;12.60;10.05;;;;;;;14.20;81.05;99393.80;1745289;81;21100;-60
2022/09/15 02:58:03;;;;;;;13.80;11.15;;;;;;;14.18;81.06;99386.53;1744319;80;21147;-60
2022/09/15 03:00:29;;;;;;;13.55;10.00;;;;;;;14.16;80.97;99376.63;1722630;81;21015;-60
2022/09/15 03:02:57;;;;;;;10.82;9.05;;;;;;;14.19;80.83;99376.30;1733208;82;21093;-60
2022/09/15 03:05:26;;;;;;;14.18;10.20;;;;;;;14.22;80.66;99377.28;1729317;81;21121;-59
2022/09/15 03:07:52;;;;;;;11.63;9.93;;;;;;;14.22;80.67;99375.95;1740780;80;21036;-60
2022/09/15 03:10:19;;;;;;;10.78;8.95;;;;;;;14.19;80.77;99372.80;1745699;81;21110;-60
2022/09/15 03:12:48;;;;;;;11.63;9.45;;;;;;;14.16;80.89;99371.84;1732543;82;22026;-60
2022/09/15 03:15:18;;;;;;;11.88;9.85;;;;;;;14.11;80.83;99367.87;1740301;80;21838;-61
2022/09/15 03:17:46;;;;;;;10.68;9.58;;;;;;;14.16;80.62;99367.38;1766853;80;21098;-60
2022/09/15 03:20:18;;;;;;;10.05;9.00;;;;;;;14.17;80.39;99369.03;1755237;80;21151;-60
2022/09/15 03:22:45;;;;;;;12.63;9.93;;;;;;;14.16;80.38;99363.41;1771519;80;21097;-59
2022/09/15 03:25:12;;;;;;;11.57;9.73;;;;;;;14.11;80.39;99352.52;1748557;79;20963;-60
2022/09/15 03:27:38;;;;;;;12.82;10.10;;;;;;;14.04;80.49;99351.55;1752652;79;21102;-60
2022/09/15 03:30:08;;;;;;;12.58;8.80;;;;;;;14.01;80.44;99347.41;1745601;80;21126;-61
2022/09/15 03:32:34;;;;;;;11.95;9.93;;;;;;;14.03;80.32;99351.21;1753548;80;21110;-60
2022/09/15 03:35:01;;;;;;;11.65;9.63;;;;;;;14.05;80.31;99342.61;1762611;80;21222;-60
2022/09/15 03:37:28;;;;;;;11.40;9.18;;;;;;;14.06;80.42;99350.38;1757144;80;21099;-60
2022/09/15 03:39:54;;;;;;;17.27;9.88;;;;;;;14.05;80.54;99349.22;1753490;79;21074;-60
2022/09/15 03:42:21;;;;;;;11.80;10.03;;;;;;;14.04;80.75;99346.27;1756089;80;21641;-60
2022/09/15 03:44:48;;;;;;;11.93;9.20;;;;;;;14.06;80.65;99338.47;1753924;79;21083;-60
2022/09/15 03:47:14;;;;;;;13.35;8.73;;;;;;;14.09;80.47;99331.52;1749375;79;21095;-60
2022/09/15 03:49:41;;;;;;;11.45;9.40;;;;;;;14.12;80.31;99332.98;1757003;79;21047;-61
2022/09/15 03:52:09;;;;;;;12.33;10.15;;;;;;;14.20;80.71;99338.23;1752966;80;21095;-60
2022/09/15 03:54:36;;;;;;;11.73;9.98;;;;;;;14.28;80.85;99335.56;1753190;80;21059;-60
2022/09/15 03:57:03;;;;;;;12.47;10.23;;;;;;;14.29;80.75;99339.05;1759105;80;21044;-60
2022/09/15 03:59:31;;;;;;;11.65;9.60;;;;;;;14.27;80.53;99327.80;1761970;80;21185;-60
2022/09/15 04:01:57;;;;;;;11.53;8.88;;;;;;;14.34;80.49;99329.25;1760139;79;21070;-60
2022/09/15 04:04:24;;;;;;;11.05;9.48;;;;;;;14.43;80.54;99329.55;1758248;80;21078;-59
2022/09/15 04:06:51;;;;;;;12.23;9.50;;;;;;;14.48;80.43;99334.64;1759998;79;21063;-60
2022/09/15 04:09:17;;;;;;;11.73;9.73;;;;;;;14.48;80.38;99331.17;1760106;80;21117;-60
2022/09/15 04:11:44;;;;;;;12.75;9.15;;;;;;;14.48;80.46;99332.50;1755326;80;21300;-60
2022/09/15 04:14:10;;;;;;;10.45;8.45;;;;;;;14.48;80.33;99342.58;1754845;79;21516;-60
2022/09/15 04:16:37;;;;;;;12.20;9.03;;;;;;;14.54;80.31;99349.50;1757621;79;21549;-60
2022/09/15 04:19:04;;;;;;;11.25;9.13;;;;;;;14.61;80.20;99351.32;1755686;80;21061;-61
2022/09/15 04:21:32;;;;;;;11.12;9.30;;;;;;;14.65;80.04;99357.90;1756529;79;21053;-61
2022/09/15 04:23:59;;;;;;;10.25;8.98;;;;;;;14.68;80.30;99355.42;1751840;79;21153;-61
2022/09/15 04:26:31;;;;;;;10.28;8.83;;;;;;;14.64;80.17;99357.59;1749309;80;21032;-60
2022/09/15 04:28:59;;;;;;;10.82;8.75;;;;;;;14.64;80.10;99362.05;1750597;80;21064;-60
2022/09/15 04:31:26;;;;;;;14.70;8.70;;;;;;;14.68;79.97;99368.15;1749566;80;21062;-60
2022/09/15 04:33:53;;;;;;;14.15;8.98;;;;;;;14.73;79.90;99369.47;1754867;79;21040;-59
2022/09/15 04:36:22;;;;;;;13.18;9.60;;;;;;;14.76;79.88;99370.41;1753896;80;21209;-58
2022/09/15 04:38:49;;;;;;;11.00;9.55;;;;;;;14.76;79.94;99366.44;1761618;79;21154;-59
2022/09/15 04:41:16;;;;;;;11.53;9.53;;;;;;;14.76;79.84;99358.50;1757028;80;21835;-60
2022/09/15 04:43:43;;;;;;;9.03;7.83;;;;;;;14.74;79.79;99351.23;1752786;79;21487;-59
2022/09/15 04:46:11;;;;;;;11.70;9.38;;;;;;;14.81;79.73;99345.55;1758657;80;21034;-60
2022/09/15 04:48:37;;;;;;;10.63;8.80;;;;;;;14.86;79.69;99340.55;1759774;79;21225;-60
2022/09/15 04:51:07;;;;;;;12.37;9.00;;;;;;;14.90;79.68;99337.89;1754420;80;21034;-60
2022/09/15 04:53:36;;;;;;;10.85;9.35;;;;;;;14.90;79.77;99345.02;1720798;82;21082;-60
2022/09/15 04:56:15;;;;;;;12.88;9.08;;;;;;;14.88;79.91;99345.67;1751006;80;21047;-60
2022/09/15 04:58:49;;;;;;;10.55;8.28;;;;;;;14.92;79.95;99332.42;1757668;79;21465;-60
2022/09/15 05:01:22;;;;;;;10.80;8.53;;;;;;;14.98;79.79;99329.89;1751501;79;22199;-60
2022/09/15 05:03:49;;;;;;;13.18;9.80;;;;;;;15.03;79.67;99322.75;1751536;80;21081;-60
2022/09/15 05:06:19;;;;;;;11.70;9.43;;;;;;;15.07;79.67;99321.88;1757997;79;21024;-60
2022/09/15 05:08:50;;;;;;;14.07;9.85;;;;;;;15.07;79.85;99320.56;1750314;79;21027;-60
2022/09/15 05:11:16;;;;;;;12.13;9.85;;;;;;;15.07;80.00;99323.20;1756318;80;21030;-60
2022/09/15 05:13:43;;;;;;;10.93;9.23;;;;;;;15.12;80.09;99330.13;1761758;80;21149;-60
2022/09/15 05:16:14;;;;;;;13.72;9.55;;;;;;;15.21;79.92;99325.06;1753143;80;21044;-60
2022/09/15 05:18:42;;;;;;;12.07;8.80;;;;;;;15.28;79.76;99320.72;1736263;80;21141;-61
2022/09/15 05:21:10;;;;;;;11.90;9.50;;;;;;;15.33;79.75;99316.17;1743329;80;21111;-61
2022/09/15 05:23:37;;;;;;;12.43;9.15;;;;;;;15.37;79.76;99311.67;1710133;82;21065;-61
2022/09/15 05:26:06;;;;;;;10.53;9.08;;;;;;;15.38;79.59;99304.05;1746228;81;21244;-61
2022/09/15 05:28:35;;;;;;;10.70;8.60;;;;;;;15.39;79.26;99298.23;1710132;82;21580;-61
2022/09/15 05:31:02;;;;;;;12.55;9.78;;;;;;;15.45;79.16;99300.66;1732245;80;21043;-61
2022/09/15 05:33:29;;;;;;;13.15;9.85;;;;;;;15.52;78.96;99301.60;1712254;82;21587;-60
2022/09/15 05:35:59;;;;;;;11.43;9.05;;;;;;;15.56;78.75;99294.92;1716566;82;21164;-60
2022/09/15 05:38:28;;;;;;;11.03;9.10;;;;;;;15.55;78.60;99299.41;1752271;81;21239;-60
2022/09/15 05:40:56;;;;;;;11.60;9.30;;;;;;;15.53;78.55;99298.77;1745927;81;22358;-61
2022/09/15 05:43:23;;;;;;;11.55;9.53;;;;;;;15.53;78.46;99304.08;1748868;81;21039;-60
2022/09/15 05:45:55;;;;;;;11.88;9.15;;;;;;;15.60;78.36;99302.81;1745494;81;21067;-61
2022/09/15 05:48:23;;;;;;;10.15;8.90;;;;;;;15.64;78.27;99297.48;1744896;81;21086;-60
2022/09/15 05:50:51;;;;;;;12.25;8.95;;;;;;;15.68;78.17;99296.11;1741962;80;21136;-60
2022/09/15 05:53:18;;;;;;;10.68;8.63;;;;;;;15.69;78.02;99296.44;1742402;80;21048;-60
2022/09/15 05:55:44;;;;;;;14.10;10.00;;;;;;;15.69;78.10;99302.25;1741917;80;21084;-61
2022/09/15 05:58:10;;;;;;;13.35;10.10;;;;;;;15.64;78.13;99294.84;1749869;81;21016;-61
2022/09/15 06:00:37;;;;;;;13.72;9.65;;;;;;;15.64;77.95;99299.33;1751685;80;21111;-60
2022/09/15 06:03:05;;;;;;;22.02;12.30;;;;;;;15.65;77.89;99304.45;1744263;80;21021;-61
2022/09/15 06:05:32;;;;;;;19.20;11.68;;;;;;;15.69;77.74;99301.74;1743712;81;21006;-60
2022/09/15 06:07:58;;;;;;;13.35;10.03;;;;;;;15.71;77.60;99306.35;1681524;83;21087;-61
2022/09/15 06:10:26;;;;;;;15.23;9.93;;;;;;;15.69;77.83;99301.74;1684004;83;21098;-61
2022/09/15 06:12:53;;;;;;;11.40;9.20;;;;;;;15.69;77.90;99306.23;1743076;80;21057;-60
2022/09/15 06:15:20;;;;;;;11.30;8.60;;;;;;;15.68;77.90;99306.71;1738756;81;21224;-60
2022/09/15 06:17:47;;;;;;;13.58;9.63;;;;;;;15.73;77.69;99313.61;1756204;80;21066;-60
2022/09/15 06:20:14;;;;;;;15.43;10.25;;;;;;;15.77;77.58;99312.80;1754983;80;21808;-60
2022/09/15 06:22:40;;;;;;;12.50;9.88;;;;;;;15.81;77.75;99311.94;1756476;80;21008;-61
2022/09/15 06:25:08;;;;;;;10.93;9.80;;;;;;;15.82;77.95;99306.93;1759797;79;21102;-60
2022/09/15 06:27:34;;;;;;;10.98;8.80;;;;;;;15.83;78.04;99309.91;1753484;79;21152;-61
2022/09/15 06:30:01;;;;;;;11.97;9.03;;;;;;;15.85;78.04;99314.52;1752892;80;21332;-61
2022/09/15 06:32:27;;;;;;;11.18;8.78;;;;;;;15.89;78.02;99314.50;1761231;80;21095;-60
2022/09/15 06:34:54;;;;;;;10.68;8.10;;;;;;;15.95;77.91;99329.17;1757568;79;21081;-60
2022/09/15 06:37:21;;;;;;;13.43;9.90;;;;;;;15.99;77.94;99333.61;1764684;80;21008;-59
2022/09/15 06:39:47;;;;;;;14.68;10.48;;;;;;;15.95;78.12;99333.16;1730283;81;21143;-59
2022/09/15 06:42:14;;;;;;;16.25;10.48;;;;;;;15.97;78.37;99331.14;1765286;79;21046;-59
2022/09/15 06:44:41;;;;;;;17.85;11.60;;;;;;;16.02;78.42;99324.44;1741760;80;21011;-60
2022/09/15 06:47:09;;;;;;;16.75;10.32;;;;;;;16.12;78.19;99327.63;1754179;80;21068;-59
2022/09/15 06:49:37;;;;;;;12.07;9.23;;;;;;;16.18;77.98;99324.77;1749132;80;21054;-60
2022/09/15 06:52:04;;;;;;;12.73;10.13;;;;;;;16.23;78.14;99321.05;1749499;79;21213;-59
2022/09/15 06:54:30;;;;;;;11.88;10.38;;;;;;;16.29;78.35;99332.23;1756229;79;21047;-60
2022/09/15 06:56:57;;;;;;;12.33;9.35;;;;;;;16.29;78.40;99327.77;1766828;79;20999;-59
2022/09/15 06:59:24;;;;;;;12.53;9.25;;;;;;;16.35;78.31;99329.66;1756895;79;21578;-60
2022/09/15 07:01:53;;;;;;;15.45;9.00;;;;;;;16.39;78.02;99322.17;1764167;80;21142;-60
2022/09/15 07:04:20;;;;;;;10.55;8.70;;;;;;;16.44;77.93;99318.45;1756342;80;21152;-60
2022/09/15 07:06:47;;;;;;;12.25;9.28;;;;;;;16.50;78.02;99319.52;1754298;79;21544;-61
2022/09/15 07:09:14;;;;;;;13.55;9.95;;;;;;;16.53;77.92;99318.64;1762266;80;22349;-60
2022/09/15 07:11:40;;;;;;;12.80;10.28;;;;;;;16.53;77.86;99316.50;1754429;80;21109;-60
2022/09/15 07:14:07;;;;;;;13.88;10.38;;;;;;;16.53;77.85;99313.33;1752069;79;21027;-60
2022/09/15 07:16:35;;;;;;;12.25;9.58;;;;;;;16.56;77.75;99304.66;1758675;79;21143;-61
2022/09/15 07:19:04;;;;;;;14.10;8.88;;;;;;;16.60;77.62;99296.65;1773476;80;21003;-60
2022/09/15 07:21:30;;;;;;;12.25;9.10;;;;;;;16.68;77.67;99296.53;1763684;79;21105;-61
2022/09/15 07:23:57;;;;;;;14.25;10.95;;;;;;;16.78;77.77;99301.51;1761949;80;21065;-61
2022/09/15 07:26:27;;;;;;;11.12;9.70;;;;;;;16.83;77.99;99297.80;1767657;80;21046;-62
2022/09/15 07:29:00;;;;;;;10.72;9.43;;;;;;;16.90;78.01;99296.05;1770084;80;21213;-60
2022/09/15 07:31:30;;;;;;;12.78;9.20;;;;;;;16.99;77.94;99298.06;1768711;79;21063;-61
2022/09/15 07:33:58;;;;;;;9.78;8.40;;;;;;;17.12;77.63;99303.50;1765740;79;21026;-60
2022/09/15 07:36:25;;;;;;;11.20;8.95;;;;;;;17.23;77.31;99293.67;1767126;80;21550;-61
2022/09/15 07:38:51;;;;;;;13.50;9.78;;;;;;;17.35;77.43;99299.29;1764042;79;21021;-61
2022/09/15 07:41:23;;;;;;;11.22;9.40;;;;;;;17.42;77.29;99294.02;1763375;80;21257;-61
2022/09/15 07:43:51;;;;;;;10.45;8.70;;;;;;;17.50;76.91;99293.03;1758938;80;21125;-62
2022/09/15 07:46:19;;;;;;;10.95;8.60;;;;;;;17.57;76.38;99291.25;1768762;79;21572;-62
2022/09/15 07:48:46;;;;;;;9.55;8.38;;;;;;;17.63;76.00;99285.98;1763758;79;21086;-62
2022/09/15 07:51:14;;;;;;;14.70;8.73;;;;;;;17.72;75.63;99288.45;1768805;80;21086;-63
2022/09/15 07:53:42;;;;;;;13.78;9.33;;;;;;;17.79;75.46;99285.34;1768003;80;21144;-62
2022/09/15 07:56:09;;;;;;;13.48;10.23;;;;;;;17.84;75.42;99282.91;1761910;79;22297;-62
2022/09/15 07:58:36;;;;;;;11.85;9.23;;;;;;;17.88;75.20;99274.86;1760997;80;21075;-62
2022/09/15 08:01:05;;;;;;;12.20;8.78;;;;;;;17.93;74.95;99274.28;1759865;79;21070;-63
2022/09/15 08:03:32;;;;;;;10.45;8.00;;;;;;;17.99;74.56;99274.31;1761401;80;21082;-62
2022/09/15 08:06:02;;;;;;;12.35;9.55;;;;;;;18.04;74.20;99281.70;1756990;80;21154;-62
2022/09/15 08:08:29;;;;;;;12.55;9.30;;;;;;;18.09;74.26;99275.77;1762379;79;21062;-61
2022/09/15 08:10:57;;;;;;;10.85;9.38;;;;;;;18.10;73.70;99276.09;1764329;80;21572;-62
2022/09/15 08:13:23;;;;;;;12.68;8.90;;;;;;;18.06;73.66;99273.01;1754808;80;22334;-62
2022/09/15 08:15:50;;;;;;;9.88;7.95;;;;;;;18.07;73.54;99272.48;1760327;80;21030;-62
2022/09/15 08:18:17;;;;;;;11.18;8.63;;;;;;;18.09;72.88;99274.44;1762353;79;21102;-62
2022/09/15 08:20:44;;;;;;;9.65;7.92;;;;;;;18.06;72.67;99268.20;1761244;80;21030;-62
2022/09/15 08:23:11;;;;;;;9.60;7.45;;;;;;;18.00;72.70;99263.98;1765187;79;22281;-62
2022/09/15 08:25:38;;;;;;;11.00;8.90;;;;;;;17.98;72.90;99263.34;1764592;80;21552;-62
2022/09/15 08:28:05;;;;;;;12.35;7.37;;;;;;;17.95;72.85;99257.59;1762476;80;21054;-62
2022/09/15 08:30:33;;;;;;;10.30;7.95;;;;;;;17.95;72.84;99260.26;1765221;79;21133;-62
2022/09/15 08:32:59;;;;;;;10.48;7.75;;;;;;;17.97;72.46;99253.73;1772791;80;21033;-63
2022/09/15 08:35:26;;;;;;;11.45;8.05;;;;;;;17.96;72.59;99253.41;1764395;80;21121;-62
2022/09/15 08:37:54;;;;;;;9.25;7.05;;;;;;;17.99;72.66;99250.88;1771421;79;22146;-63
2022/09/15 08:40:25;;;;;;;11.95;7.60;;;;;;;17.99;72.76;99248.22;1772387;80;21000;-63
2022/09/15 08:42:52;;;;;;;11.43;8.25;;;;;;;17.98;72.89;99248.70;1767710;80;22838;-63
2022/09/15 08:45:28;;;;;;;11.25;8.25;;;;;;;18.04;73.05;99248.92;1762255;80;21136;-62
2022/09/15 08:47:58;;;;;;;13.30;7.75;;;;;;;18.10;73.29;99252.94;1760950;80;21113;-62
2022/09/15 08:50:38;;;;;;;10.53;8.15;;;;;;;18.17;73.45;99250.30;1735877;80;21038;-63
2022/09/15 08:53:11;;;;;;;9.50;8.08;;;;;;;18.20;73.32;99244.58;1723644;80;21431;-63
2022/09/15 08:55:52;;;;;;;10.45;7.75;;;;;;;18.21;73.53;99248.90;1764565;80;21176;-63
2022/09/15 08:58:29;;;;;;;9.23;7.10;;;;;;;18.21;73.63;99248.90;1763275;79;21039;-62
2022/09/15 09:01:17;;;;;;;9.30;7.00;;;;;;;18.22;73.25;99246.53;1758566;80;21030;-63
2022/09/15 09:04:01;;;;;;;17.50;11.50;;;;;;;18.24;73.19;99245.84;1755170;80;21070;-63
2022/09/15 09:06:35;;;;;;;12.58;8.10;;;;;;;18.27;73.21;99249.41;1768878;79;21073;-63
2022/09/15 09:09:50;;;;;;;12.47;7.25;;;;;;;18.32;73.11;99248.30;1755010;80;21324;-62
2022/09/15 09:12:58;;;;;;;13.85;12.30;;;;;;;18.32;73.14;99248.81;1761770;80;21011;-63
2022/09/15 09:15:35;;;;;;;10.32;7.62;;;;;;;18.31;73.17;99248.52;1686929;82;21091;-63
2022/09/15 09:18:29;;;;;;;9.10;7.90;;;;;;;18.34;72.94;99242.28;1683736;83;21199;-63
2022/09/15 09:21:16;;;;;;;8.70;6.78;;;;;;;18.39;72.70;99238.98;1748188;78;21512;-63
2022/09/15 09:24:00;;;;;;;8.78;6.90;;;;;;;18.42;72.33;99235.11;1762176;80;21729;-63
2022/09/15 09:26:28;;;;;;;9.20;7.30;;;;;;;18.42;72.40;99237.78;1759151;80;21036;-62
2022/09/15 09:29:09;;;;;;;10.65;7.33;;;;;;;18.43;72.59;99228.78;1766034;80;21047;-62
2022/09/15 09:31:36;;;;;;;11.18;7.62;;;;;;;18.47;72.56;99222.82;1767504;80;21096;-62
2022/09/15 09:34:32;;;;;;;8.35;7.12;;;;;;;18.59;72.41;99232.36;1764327;80;21062;-62
2022/09/15 09:37:09;;;;;;;9.95;7.53;;;;;;;18.70;72.45;99221.63;1774572;78;21165;-63
2022/09/15 09:39:35;;;;;;;11.30;9.30;;;;;;;18.83;72.53;99223.00;1765389;80;21079;-63
2022/09/15 09:42:02;;;;;;;12.70;8.53;;;;;;;18.93;72.46;99215.94;1767335;78;21054;-63
2022/09/15 09:44:31;;;;;;;10.72;8.05;;;;;;;19.00;72.05;99215.41;1723944;82;21064;-63
2022/09/15 09:46:59;;;;;;;8.90;7.00;;;;;;;19.06;71.79;99219.92;1763285;80;21054;-63
2022/09/15 09:49:29;;;;;;;7.42;6.15;;;;;;;19.17;71.98;99217.66;1758567;78;21124;-62
2022/09/15 09:52:01;;;;;;;8.25;6.65;;;;;;;19.27;71.69;99216.19;1725161;82;21060;-62
2022/09/15 09:54:29;;;;;;;9.60;7.47;;;;;;;19.38;71.25;99225.91;1761318;78;21044;-62
2022/09/15 09:57:16;;;;;;;10.03;7.62;;;;;;;19.41;70.56;99226.30;1762032;78;21995;-62
2022/09/15 09:59:48;;;;;;;9.63;7.20;;;;;;;19.42;70.17;99228.48;1752260;80;21139;-63
2022/09/15 10:02:18;;;;;;;9.78;7.03;;;;;;;19.40;70.27;99226.52;1757547;80;21114;-62
2022/09/15 10:05:05;;;;;;;7.87;6.08;;;;;;;19.42;70.14;99225.81;1760052;80;21109;-63
2022/09/15 10:07:33;;;;;;;10.23;7.05;;;;;;;19.49;69.89;99228.75;1766667;80;21025;-62
2022/09/15 10:10:00;;;;;;;9.75;6.87;;;;;;;19.56;69.50;99233.27;1763540;78;21127;-62
2022/09/15 10:12:32;;;;;;;10.98;6.80;;;;;;;19.57;69.10;99228.21;1755025;78;21579;-62
2022/09/15 10:15:03;;;;;;;11.45;7.20;;;;;;;19.55;68.72;99227.61;1753115;80;21846;-62
2022/09/15 10:17:42;;;;;;;9.60;6.85;;;;;;;19.53;69.05;99225.67;1763280;80;21026;-63
2022/09/15 10:20:31;;;;;;;8.73;5.78;;;;;;;19.53;69.21;99226.48;1765557;80;21592;-62
2022/09/15 10:23:07;;;;;;;8.40;6.10;;;;;;;19.57;68.60;99232.22;1723960;82;21064;-63
2022/09/15 10:25:36;;;;;;;11.97;6.33;;;;;;;19.60;68.43;99234.47;1735357;80;21531;-63
2022/09/15 10:28:15;;;;;;;8.50;6.65;;;;;;;19.63;68.18;99238.06;1762866;80;21141;-63
2022/09/15 10:31:05;;;;;;;8.43;6.20;;;;;;;19.60;67.88;99236.64;1757423;80;21470;-63
2022/09/15 10:33:36;;;;;;;8.38;5.70;;;;;;;19.59;67.75;99234.19;1763617;79;21193;-63
2022/09/15 10:36:19;;;;;;;8.60;6.25;;;;;;;19.57;67.01;99225.55;1761264;80;21649;-63
2022/09/15 10:39:16;;;;;;;9.58;6.78;;;;;;;19.53;67.31;99221.67;1769096;79;21136;-63
2022/09/15 10:41:49;;;;;;;10.80;6.75;;;;;;;19.59;68.10;99224.84;1762324;80;21125;-62
2022/09/15 10:44:57;;;;;;;8.65;6.17;;;;;;;19.70;68.37;99224.69;1751723;79;21132;-62
2022/09/15 10:47:56;;;;;;;8.30;6.22;;;;;;;19.78;68.14;99226.64;1760005;80;21083;-62
2022/09/15 10:51:03;;;;;;;8.80;5.97;;;;;;;19.80;68.29;99216.59;1661346;80;21157;-63
2022/09/15 10:53:53;;;;;;;10.35;6.03;;;;;;;19.81;68.40;99218.22;1751709;80;21100;-63
2022/09/15 10:56:27;;;;;;;9.58;6.33;;;;;;;19.82;68.28;99215.86;1733908;79;21348;-61
2022/09/15 10:59:38;;;;;;;8.13;5.97;;;;;;;19.79;68.01;99217.61;1724833;80;21122;-61
2022/09/15 11:02:28;;;;;;;8.65;5.12;;;;;;;19.82;67.84;99218.53;1762167;80;21027;-62
2022/09/15 11:05:15;;;;;;;7.87;5.42;;;;;;;19.93;67.67;99221.03;1742831;79;21054;-62
2022/09/15 11:07:54;;;;;;;7.55;5.80;;;;;;;19.98;67.51;99217.73;1768421;80;21032;-62
2022/09/15 11:10:52;;;;;;;8.13;4.87;;;;;;;20.02;67.50;99210.92;1762638;80;21589;-62
2022/09/15 11:13:38;;;;;;;11.15;7.92;;;;;;;20.02;66.92;99202.42;1756272;79;21083;-62
2022/09/15 11:16:40;;;;;;;9.33;6.70;;;;;;;19.99;66.46;99200.17;1757101;79;21005;-63
2022/09/15 11:19:33;;;;;;;8.70;5.92;;;;;;;19.95;66.40;99194.13;1759276;80;21010;-63
2022/09/15 11:22:08;;;;;;;8.28;4.92;;;;;;;19.92;66.46;99193.22;1761361;80;21050;-63
2022/09/15 11:25:04;;;;;;;8.48;5.62;;;;;;;19.93;66.63;99182.33;1759929;79;21149;-63
2022/09/15 11:27:35;;;;;;;8.33;5.15;;;;;;;19.91;66.11;99185.73;1760730;79;21576;-62
2022/09/15 11:30:17;;;;;;;7.97;5.67;;;;;;;19.85;66.70;99186.08;1761265;80;21040;-63
2022/09/15 11:44:42;;;;;;;8.13;4.85;;;;;;;20.59;66.04;99170.41;1801177;77;22817;-45
2022/09/15 11:47:32;;;;;;;6.85;4.80;;;;;;;20.64;65.59;99167.62;1771370;80;21057;-45
2022/09/15 11:50:28;;;;;;;8.58;5.50;;;;;;;20.58;65.69;99163.94;1772678;80;21135;-46
2022/09/15 11:53:17;;;;;;;8.98;5.70;;;;;;;20.53;65.46;99157.91;1774370;80;21129;-47
2022/09/15 11:56:14;;;;;;;9.15;5.83;;;;;;;20.50;65.58;99154.33;1769722;79;21722;-47
2022/09/15 11:59:18;;;;;;;7.62;6.15;;;;;;;20.41;65.33;99152.98;1774620;80;21066;-47
2022/09/15 12:02:03;;;;;;;9.93;5.87;;;;;;;20.29;65.38;99166.70;1771352;80;21017;-46
2022/09/15 12:04:32;;;;;;;8.13;5.58;;;;;;;20.17;64.96;99167.42;1762680;80;21091;-47